createdAt,value
2019-03-22T00:00:44.150Z,17.77
2019-03-22T00:03:17.249Z,18.60
2019-03-22T00:05:49.313Z,18.77
2019-03-22T00:08:21.379Z,17.97
2019-03-22T00:10:53.365Z,20.80
2019-03-22T00:13:25.419Z,17.63
2019-03-22T00:15:57.646Z,17.93
2019-03-22T00:18:29.730Z,18.63
2019-03-22T00:21:02.863Z,18.80
2019-03-22T00:23:35.896Z,16.97
2019-03-22T00:26:07.931Z,18.83
2019-03-22T00:28:43.273Z,17.47
2019-03-22T00:31:15.403Z,17.13
2019-03-22T00:33:49.369Z,20.50
2019-03-22T00:36:21.435Z,18.30
2019-03-22T00:38:53.401Z,20.43
2019-03-22T00:41:25.367Z,17.57
2019-03-22T00:43:57.387Z,19.90
2019-03-22T00:46:29.395Z,18.33
2019-03-22T00:49:01.464Z,19.17
2019-03-22T00:51:33.481Z,17.47
2019-03-22T00:54:05.640Z,18.43
2019-03-22T00:56:37.744Z,20.27
2019-03-22T00:59:09.774Z,19.17
2019-03-22T01:01:41.786Z,20.70
2019-03-22T01:04:13.910Z,18.90
2019-03-22T01:06:48.921Z,17.87
2019-03-22T01:09:21.007Z,19.00
2019-03-22T01:11:54.483Z,18.63
2019-03-22T01:14:28.018Z,18.50
2019-03-22T01:17:00.187Z,18.67
2019-03-22T01:19:32.229Z,18.07
2019-03-22T01:22:05.447Z,18.27
2019-03-22T01:24:37.502Z,17.57
2019-03-22T01:27:09.462Z,18.40
2019-03-22T01:29:41.534Z,18.60
2019-03-22T01:32:13.467Z,18.60
2019-03-22T01:34:45.609Z,19.33
2019-03-22T01:37:17.688Z,16.87
2019-03-22T01:39:49.692Z,19.77
2019-03-22T01:42:21.643Z,19.50
2019-03-22T01:44:53.667Z,19.63
2019-03-22T01:47:26.681Z,18.20
2019-03-22T01:49:58.728Z,18.33
2019-03-22T01:52:30.651Z,18.17
2019-03-22T01:55:02.657Z,20.30
2019-03-22T01:57:34.797Z,19.40
2019-03-22T02:00:13.612Z,18.20
2019-03-22T02:02:45.821Z,21.40
2019-03-22T02:05:18.322Z,26.53
2019-03-22T02:07:50.369Z,24.33
2019-03-22T02:10:22.413Z,19.40
2019-03-22T02:12:54.420Z,19.67
2019-03-22T02:15:28.507Z,18.57
2019-03-22T02:18:00.716Z,19.77
2019-03-22T02:20:32.861Z,18.87
2019-03-22T02:23:06.599Z,19.73
2019-03-22T02:25:40.216Z,18.60
2019-03-22T02:28:12.241Z,18.53
2019-03-22T02:30:44.286Z,19.63
2019-03-22T02:33:16.263Z,20.60
2019-03-22T02:35:48.252Z,21.80
2019-03-22T02:38:20.323Z,21.67
2019-03-22T02:40:52.274Z,21.10
2019-03-22T02:43:24.253Z,20.63
2019-03-22T02:45:57.388Z,23.27
2019-03-22T02:48:30.618Z,23.23
2019-03-22T02:51:04.180Z,20.43
2019-03-22T02:53:36.168Z,22.10
2019-03-22T02:56:08.279Z,22.73
2019-03-22T02:58:40.371Z,20.93
2019-03-22T03:01:12.359Z,21.97
2019-03-22T03:03:44.391Z,20.63
2019-03-22T03:06:16.355Z,21.83
2019-03-22T03:08:51.445Z,21.33
2019-03-22T03:11:23.473Z,19.83
2019-03-22T03:13:55.433Z,19.43
2019-03-22T03:16:27.443Z,19.13
2019-03-22T03:18:59.397Z,20.73
2019-03-22T03:21:31.610Z,19.47
2019-03-22T03:24:03.575Z,18.50
2019-03-22T03:26:35.518Z,19.70
2019-03-22T03:29:07.580Z,20.50
2019-03-22T03:31:39.761Z,20.27
2019-03-22T03:34:11.706Z,17.43
2019-03-22T03:36:43.663Z,19.90
2019-03-22T03:39:15.617Z,19.17
2019-03-22T03:41:47.593Z,18.57
2019-03-22T03:44:19.870Z,18.73
2019-03-22T03:46:54.372Z,18.87
2019-03-22T03:49:28.403Z,19.03
2019-03-22T03:52:00.468Z,18.37
2019-03-22T03:54:32.473Z,19.00
2019-03-22T03:57:05.739Z,16.27
2019-03-22T03:59:37.722Z,16.03
2019-03-22T04:02:13.847Z,17.80
2019-03-22T04:04:45.803Z,18.13
2019-03-22T04:07:17.806Z,18.13
2019-03-22T04:09:49.837Z,17.57
2019-03-22T04:12:21.814Z,16.20
2019-03-22T04:14:53.825Z,18.37
2019-03-22T04:17:25.771Z,16.53
2019-03-22T04:19:57.922Z,18.67
2019-03-22T04:22:29.977Z,16.80
2019-03-22T04:25:02.104Z,17.27
2019-03-22T04:27:34.057Z,18.10
2019-03-22T04:30:07.527Z,15.10
2019-03-22T04:32:39.502Z,16.40
2019-03-22T04:35:11.737Z,17.27
2019-03-22T04:37:43.705Z,17.80
2019-03-22T04:40:24.151Z,16.23
2019-03-22T04:42:58.557Z,17.63
2019-03-22T04:45:32.203Z,16.43
2019-03-22T04:48:14.833Z,17.90
2019-03-22T04:50:49.996Z,15.93
2019-03-22T04:53:23.680Z,15.47
2019-03-22T04:55:59.330Z,16.70
2019-03-22T04:58:32.337Z,15.70
2019-03-22T05:01:06.799Z,17.03
2019-03-22T05:03:39.873Z,18.23
2019-03-22T05:06:12.345Z,17.40
2019-03-22T05:08:45.329Z,17.83
2019-03-22T05:11:17.712Z,14.60
2019-03-22T05:13:54.976Z,16.43
2019-03-22T05:16:26.977Z,16.73
2019-03-22T05:19:02.411Z,16.20
2019-03-22T05:21:37.915Z,15.57
2019-03-22T05:24:11.802Z,16.27
2019-03-22T05:26:48.023Z,16.73
2019-03-22T05:29:30.229Z,14.87
2019-03-22T05:32:05.787Z,14.80
2019-03-22T05:34:37.959Z,15.43
2019-03-22T05:37:12.613Z,16.97
2019-03-22T05:39:47.807Z,16.80
2019-03-22T05:42:19.841Z,15.33
2019-03-22T05:44:51.778Z,16.37
2019-03-22T05:47:23.777Z,15.67
2019-03-22T05:49:55.851Z,14.87
2019-03-22T05:52:32.215Z,15.27
2019-03-22T05:55:04.208Z,15.93
2019-03-22T05:57:38.265Z,16.53
2019-03-22T06:00:10.325Z,17.93
2019-03-22T06:02:42.316Z,18.90
2019-03-22T06:05:14.346Z,17.40
2019-03-22T06:07:48.463Z,18.17
2019-03-22T06:10:20.436Z,18.07
2019-03-22T06:12:53.871Z,18.03
2019-03-22T06:15:27.588Z,17.37
2019-03-22T06:17:59.580Z,17.07
2019-03-22T06:20:31.590Z,18.10
2019-03-22T06:23:03.538Z,21.50
2019-03-22T06:25:35.593Z,18.10
2019-03-22T06:28:07.577Z,20.07
2019-03-22T06:30:41.360Z,17.60
2019-03-22T06:33:13.332Z,17.77
2019-03-22T06:35:45.312Z,18.83
2019-03-22T06:38:17.387Z,16.37
2019-03-22T06:40:49.359Z,16.47
2019-03-22T06:43:21.402Z,17.70
2019-03-22T06:45:53.438Z,17.50
2019-03-22T06:48:25.405Z,19.33
2019-03-22T06:51:01.634Z,19.13
2019-03-22T06:53:33.549Z,20.53
2019-03-22T06:56:08.418Z,19.30
2019-03-22T06:58:40.541Z,17.40
2019-03-22T07:01:15.952Z,19.00
2019-03-22T07:03:47.934Z,16.07
2019-03-22T07:06:19.934Z,17.97
2019-03-22T07:08:51.965Z,18.33
2019-03-22T07:11:23.969Z,19.37
2019-03-22T07:13:58.735Z,20.10
2019-03-22T07:16:30.758Z,19.20
2019-03-22T07:19:02.762Z,17.53
2019-03-22T07:21:34.847Z,18.30
2019-03-22T07:24:06.929Z,15.43
2019-03-22T07:26:39.060Z,17.47
2019-03-22T07:29:11.075Z,16.50
2019-03-22T07:31:46.200Z,16.60
2019-03-22T07:34:19.711Z,15.53
2019-03-22T07:36:51.709Z,14.30
2019-03-22T07:39:23.686Z,15.53
2019-03-22T07:41:55.676Z,15.97
2019-03-22T07:44:27.622Z,14.07
2019-03-22T07:46:59.742Z,15.60
2019-03-22T07:49:31.710Z,14.37
2019-03-22T07:52:08.288Z,13.83
2019-03-22T07:54:40.408Z,14.80
2019-03-22T07:57:12.391Z,16.00
2019-03-22T07:59:44.382Z,15.00
2019-03-22T08:02:25.732Z,13.37
2019-03-22T08:04:56.697Z,15.00
2019-03-22T08:07:28.698Z,13.90
2019-03-22T08:10:07.937Z,13.63
2019-03-22T08:12:39.706Z,13.10
2019-03-22T08:15:13.804Z,13.83
2019-03-22T08:17:45.826Z,14.80
2019-03-22T08:20:17.923Z,11.23
2019-03-22T08:22:49.948Z,12.80
2019-03-22T08:25:22.237Z,12.07
2019-03-22T08:27:54.282Z,11.73
2019-03-22T08:30:26.285Z,12.60
2019-03-22T08:32:58.293Z,12.30
2019-03-22T08:35:31.910Z,13.60
2019-03-22T08:38:03.936Z,14.50
2019-03-22T08:40:36.209Z,13.37
2019-03-22T08:43:08.218Z,13.00
2019-03-22T08:45:40.187Z,13.33
2019-03-22T08:48:12.299Z,12.53
2019-03-22T08:50:44.342Z,13.83
2019-03-22T08:53:17.857Z,13.13
2019-03-22T08:55:50.954Z,15.37
2019-03-22T08:58:22.920Z,12.63
2019-03-22T09:00:57.733Z,12.83
2019-03-22T09:03:28.536Z,11.20
2019-03-22T09:06:00.637Z,11.40
2019-03-22T09:08:32.699Z,10.80
2019-03-22T09:11:05.775Z,10.57
2019-03-22T09:13:37.878Z,10.23
2019-03-22T09:16:09.953Z,11.03
2019-03-22T09:18:43.057Z,10.57
2019-03-22T09:21:15.003Z,10.20
2019-03-22T09:23:47.083Z,10.07
2019-03-22T09:26:20.146Z,9.20
2019-03-22T09:28:52.171Z,9.70
2019-03-22T09:31:24.220Z,10.53
2019-03-22T09:33:56.137Z,9.87
2019-03-22T09:36:28.212Z,9.17
2019-03-22T09:39:00.157Z,10.40
2019-03-22T09:41:32.201Z,8.20
2019-03-22T09:44:07.324Z,11.23
2019-03-22T09:46:39.487Z,9.60
2019-03-22T09:49:11.442Z,8.47
2019-03-22T09:51:43.452Z,7.93
2019-03-22T09:54:15.428Z,6.40
2019-03-22T09:56:47.995Z,7.60
2019-03-22T09:59:19.950Z,6.57
2019-03-22T10:01:51.995Z,7.40
2019-03-22T10:04:24.027Z,7.93
2019-03-22T10:06:56.109Z,6.33
2019-03-22T10:09:28.043Z,6.83
2019-03-22T10:12:00.072Z,7.37
2019-03-22T10:14:32.151Z,6.77
2019-03-22T10:17:04.267Z,7.10
2019-03-22T10:19:37.338Z,5.77
2019-03-22T10:22:09.265Z,7.33
2019-03-22T10:24:41.293Z,6.97
2019-03-22T10:27:13.421Z,6.90
2019-03-22T10:29:45.444Z,6.23
2019-03-22T10:32:17.508Z,6.70
2019-03-22T10:34:49.604Z,7.27
2019-03-22T10:37:21.578Z,7.33
2019-03-22T10:39:53.662Z,8.47
2019-03-22T10:42:25.762Z,20.17
2019-03-22T10:44:57.804Z,11.17
2019-03-22T10:47:29.760Z,15.57
2019-03-22T10:50:05.206Z,10.40
2019-03-22T10:52:37.223Z,10.20
2019-03-22T10:55:28.405Z,13.10
2019-03-22T10:57:43.141Z,8.90
2019-03-22T11:00:17.323Z,10.20
2019-03-22T11:02:50.653Z,10.43
2019-03-22T11:05:24.119Z,9.03
2019-03-22T11:07:56.251Z,15.87
2019-03-22T11:10:28.310Z,8.77
2019-03-22T11:13:00.347Z,9.00
2019-03-22T11:15:33.538Z,10.90
2019-03-22T11:18:07.184Z,8.30
2019-03-22T11:20:39.406Z,10.57
2019-03-22T11:23:11.448Z,10.90
2019-03-22T11:25:43.550Z,8.03
2019-03-22T11:28:15.655Z,9.87
2019-03-22T11:30:49.287Z,8.03
2019-03-22T11:33:21.316Z,8.77
2019-03-22T11:35:53.269Z,8.67
2019-03-22T11:38:25.270Z,9.90
2019-03-22T11:40:57.273Z,9.57
2019-03-22T11:43:29.331Z,8.13
2019-03-22T11:46:03.075Z,8.60
2019-03-22T11:48:35.005Z,9.03
2019-03-22T11:51:08.525Z,8.37
2019-03-22T11:53:40.502Z,8.73
2019-03-22T11:56:12.457Z,10.27
2019-03-22T11:58:44.473Z,8.33
2019-03-22T12:01:21.304Z,8.27
2019-03-22T12:03:54.530Z,10.40
2019-03-22T12:06:27.416Z,10.67
2019-03-22T12:08:59.493Z,9.63
2019-03-22T12:11:31.563Z,7.73
2019-03-22T12:14:03.539Z,10.17
2019-03-22T12:16:36.665Z,9.93
2019-03-22T12:19:10.207Z,9.00
2019-03-22T12:21:46.282Z,8.33
2019-03-22T12:24:18.781Z,7.63
2019-03-22T12:26:51.903Z,8.33
2019-03-22T12:29:23.897Z,8.80
2019-03-22T12:31:55.887Z,9.40
2019-03-22T12:34:30.233Z,8.13
2019-03-22T12:37:02.355Z,7.80
2019-03-22T12:39:34.293Z,8.13
2019-03-22T12:42:07.646Z,9.53
2019-03-22T12:44:40.939Z,9.03
2019-03-22T12:47:12.883Z,7.93
2019-03-22T12:49:44.839Z,9.07
2019-03-22T12:52:16.990Z,8.77
2019-03-22T12:54:49.010Z,8.83
2019-03-22T12:57:21.119Z,9.47
2019-03-22T12:59:53.123Z,9.27
2019-03-22T13:02:25.122Z,9.13
2019-03-22T13:05:00.042Z,8.20
2019-03-22T13:07:32.168Z,8.53
2019-03-22T13:10:05.127Z,7.67
2019-03-22T13:12:37.169Z,7.63
2019-03-22T13:15:09.547Z,8.40
2019-03-22T13:17:41.739Z,8.07
2019-03-22T13:20:15.700Z,10.20
2019-03-22T13:22:51.680Z,9.60
2019-03-22T13:25:24.738Z,9.50
2019-03-22T13:27:56.717Z,9.30
2019-03-22T13:30:36.116Z,10.57
2019-03-22T13:33:08.172Z,9.47
2019-03-22T13:35:42.508Z,8.97
2019-03-22T13:38:14.495Z,9.33
2019-03-22T13:40:51.009Z,11.00
2019-03-22T13:43:23.017Z,12.23
2019-03-22T13:45:54.980Z,13.13
2019-03-22T13:48:27.028Z,12.13
2019-03-22T13:51:00.331Z,10.90
2019-03-22T13:53:32.904Z,10.47
2019-03-22T13:56:05.001Z,10.43
2019-03-22T13:58:44.507Z,9.30
2019-03-22T14:01:16.478Z,10.00
2019-03-22T14:03:48.579Z,9.20
2019-03-22T14:06:20.667Z,11.07
2019-03-22T14:08:52.744Z,9.07
2019-03-22T14:11:24.846Z,10.47
2019-03-22T14:13:56.810Z,9.20
2019-03-22T14:16:28.938Z,10.77
2019-03-22T14:19:01.032Z,9.17
2019-03-22T14:21:33.159Z,9.33
2019-03-22T14:24:05.211Z,10.13
2019-03-22T14:26:37.234Z,8.00
2019-03-22T14:29:11.904Z,13.80
2019-03-22T14:31:45.526Z,11.70
2019-03-22T14:34:17.489Z,11.57
2019-03-22T14:36:49.524Z,11.20
2019-03-22T14:39:21.530Z,8.03
2019-03-22T14:41:53.505Z,8.73
2019-03-22T14:44:28.160Z,8.53
2019-03-22T14:47:02.475Z,8.70
2019-03-22T14:49:34.458Z,9.77
2019-03-22T14:52:06.461Z,9.77
2019-03-22T14:54:38.510Z,7.13
2019-03-22T14:57:10.635Z,7.90
2019-03-22T14:59:44.506Z,8.07
2019-03-22T15:02:16.743Z,8.07
2019-03-22T15:04:49.455Z,8.10
2019-03-22T15:07:21.973Z,7.73
2019-03-22T15:09:56.935Z,7.63
2019-03-22T15:12:29.046Z,7.63
2019-03-22T15:15:20.224Z,8.13
2019-03-22T15:18:02.930Z,8.17
2019-03-22T15:20:52.397Z,8.40
2019-03-22T15:24:03.443Z,7.13
2019-03-22T15:26:48.882Z,8.00
2019-03-22T15:29:55.119Z,8.13
2019-03-22T15:32:46.254Z,10.53
2019-03-22T15:35:45.612Z,9.83
2019-03-22T15:38:39.846Z,8.30
2019-03-22T15:41:12.032Z,8.20
2019-03-22T15:43:44.072Z,8.40
2019-03-22T15:46:16.130Z,9.13
2019-03-22T15:48:48.363Z,8.50
2019-03-22T15:51:20.370Z,10.93
2019-03-22T15:53:52.435Z,8.97
2019-03-22T15:56:27.750Z,8.27
2019-03-22T15:59:03.658Z,8.60
2019-03-22T16:01:35.770Z,9.83
2019-03-22T16:04:18.726Z,9.20
2019-03-22T16:06:51.510Z,10.50
2019-03-22T16:09:23.738Z,10.20
2019-03-22T16:11:55.909Z,10.30
2019-03-22T16:14:28.211Z,11.10
2019-03-22T16:17:00.376Z,11.40
2019-03-22T16:19:35.701Z,13.80
2019-03-22T16:22:07.958Z,13.10
2019-03-22T16:24:40.189Z,11.77
2019-03-22T16:27:12.449Z,14.27
2019-03-22T16:29:44.522Z,15.00
2019-03-22T16:32:16.486Z,11.83
2019-03-22T16:34:48.467Z,12.63
2019-03-22T16:37:20.547Z,13.87
2019-03-22T16:39:52.725Z,14.10
2019-03-22T16:42:24.793Z,13.17
2019-03-22T16:44:56.824Z,12.70
2019-03-22T16:47:28.854Z,15.20
2019-03-22T16:50:02.980Z,14.40
2019-03-22T16:52:35.138Z,11.73
2019-03-22T16:55:09.211Z,12.57
2019-03-22T16:57:41.461Z,11.07
2019-03-22T17:00:13.840Z,10.23
2019-03-22T17:02:47.368Z,11.93
2019-03-22T17:05:19.513Z,11.23
2019-03-22T17:07:51.569Z,11.13
2019-03-22T17:10:23.665Z,10.90
2019-03-22T17:12:55.647Z,12.00
2019-03-22T17:15:27.985Z,11.67
2019-03-22T17:18:00.279Z,11.73
2019-03-22T17:20:32.328Z,10.60
2019-03-22T17:23:04.718Z,11.70
2019-03-22T17:25:37.039Z,11.97
2019-03-22T17:28:09.657Z,13.50
2019-03-22T17:30:41.697Z,15.67
2019-03-22T17:33:13.780Z,14.70
2019-03-22T17:35:45.842Z,13.63
2019-03-22T17:38:17.988Z,11.27
2019-03-22T17:40:50.128Z,14.83
2019-03-22T17:43:23.152Z,22.17
2019-03-22T17:45:55.312Z,14.93
2019-03-22T17:48:27.572Z,14.77
2019-03-22T17:50:59.858Z,14.57
2019-03-22T17:53:31.956Z,16.93
2019-03-22T17:56:11.246Z,15.40
2019-03-22T17:58:38.002Z,16.87
2019-03-22T18:01:10.457Z,17.30
2019-03-22T18:03:42.606Z,15.10
2019-03-22T18:06:14.714Z,17.37
2019-03-22T18:08:49.068Z,18.10
2019-03-22T18:11:21.169Z,17.70
2019-03-22T18:13:54.978Z,19.63
2019-03-22T18:16:27.102Z,18.63
2019-03-22T18:18:59.199Z,18.63
2019-03-22T18:21:31.253Z,18.20
2019-03-22T18:24:03.382Z,17.83
2019-03-22T18:26:37.066Z,18.23
2019-03-22T18:29:09.083Z,18.23
2019-03-22T18:31:41.299Z,17.37
2019-03-22T18:34:13.344Z,21.73
2019-03-22T18:36:45.372Z,23.77
2019-03-22T18:39:17.727Z,21.23
2019-03-22T18:41:49.652Z,22.93
2019-03-22T18:44:21.704Z,34.97
2019-03-22T18:46:53.786Z,43.93
2019-03-22T18:49:25.922Z,40.27
2019-03-22T18:51:57.954Z,40.17
2019-03-22T18:54:31.494Z,35.50
2019-03-22T18:57:03.566Z,36.27
2019-03-22T18:59:36.140Z,36.33
2019-03-22T19:02:08.472Z,35.37
2019-03-22T19:04:44.346Z,38.30
2019-03-22T19:07:14.251Z,32.67
2019-03-22T19:09:54.581Z,34.10
2019-03-22T19:12:29.000Z,30.67
2019-03-22T19:15:01.030Z,29.17
2019-03-22T19:17:33.136Z,31.53
2019-03-22T19:20:08.939Z,28.43
2019-03-22T19:22:50.206Z,25.63
2019-03-22T19:25:23.243Z,27.43
2019-03-22T19:27:55.185Z,28.00
2019-03-22T19:30:27.214Z,30.53
2019-03-22T19:32:59.306Z,29.20
2019-03-22T19:35:31.299Z,32.53
2019-03-22T19:38:03.289Z,39.40
2019-03-22T19:40:35.261Z,32.97
2019-03-22T19:43:09.074Z,35.03
2019-03-22T19:45:41.149Z,37.07
2019-03-22T19:48:16.808Z,32.37
2019-03-22T19:50:48.767Z,36.50
2019-03-22T19:53:20.842Z,32.03
2019-03-22T19:55:53.125Z,33.67
2019-03-22T19:58:25.174Z,36.50
2019-03-22T20:00:57.219Z,29.07
2019-03-22T20:03:29.540Z,28.37
2019-03-22T20:06:01.537Z,26.63
2019-03-22T20:08:33.590Z,30.93
2019-03-22T20:11:05.722Z,33.57
2019-03-22T20:13:37.678Z,27.60
2019-03-22T20:16:09.759Z,26.80
2019-03-22T20:18:41.775Z,26.23
2019-03-22T20:21:13.926Z,25.73
2019-03-22T20:23:53.620Z,25.20
2019-03-22T20:26:19.482Z,26.53
2019-03-22T20:28:51.513Z,22.57
2019-03-22T20:31:23.710Z,25.20
2019-03-22T20:33:55.698Z,23.27
2019-03-22T20:36:27.788Z,25.60
2019-03-22T20:38:59.888Z,28.03
2019-03-22T20:41:33.290Z,27.83
2019-03-22T20:44:05.569Z,28.23
2019-03-22T20:46:37.506Z,28.20
2019-03-22T20:49:09.528Z,26.60
2019-03-22T20:51:41.563Z,28.17
2019-03-22T20:54:14.611Z,28.40
2019-03-22T20:56:46.830Z,28.03
2019-03-22T20:59:19.831Z,31.90
2019-03-22T21:01:51.734Z,26.70
2019-03-22T21:04:24.755Z,25.83
2019-03-22T21:06:56.758Z,23.30
2019-03-22T21:09:28.727Z,21.93
2019-03-22T21:12:00.794Z,27.10
2019-03-22T21:14:32.802Z,27.70
2019-03-22T21:17:04.787Z,23.10
2019-03-22T21:19:36.827Z,24.57
2019-03-22T21:22:08.822Z,21.80
2019-03-22T21:24:40.784Z,22.83
2019-03-22T21:27:15.774Z,23.23
2019-03-22T21:29:46.440Z,22.43
2019-03-22T21:32:18.531Z,22.63
2019-03-22T21:34:50.539Z,22.13
2019-03-22T21:37:22.589Z,23.93
2019-03-22T21:39:54.673Z,22.70
2019-03-22T21:42:26.628Z,25.83
2019-03-22T21:44:58.671Z,26.93
2019-03-22T21:47:30.714Z,24.37
2019-03-22T21:50:02.671Z,22.10
2019-03-22T21:52:34.639Z,20.67
2019-03-22T21:55:06.859Z,19.63
2019-03-22T21:57:40.063Z,19.20
2019-03-22T22:00:12.179Z,17.10
2019-03-22T22:02:44.137Z,16.70
2019-03-22T22:05:16.081Z,16.43
2019-03-22T22:07:48.034Z,18.23
2019-03-22T22:10:28.108Z,17.90
2019-03-22T22:13:00.081Z,20.17
2019-03-22T22:15:32.221Z,17.57
2019-03-22T22:18:04.327Z,17.20
2019-03-22T22:20:36.317Z,18.70
2019-03-22T22:23:16.493Z,17.07
2019-03-22T22:25:48.443Z,15.93
2019-03-22T22:28:20.614Z,16.70
2019-03-22T22:30:52.654Z,15.53
2019-03-22T22:33:24.596Z,16.13
2019-03-22T22:35:58.882Z,15.37
2019-03-22T22:38:30.134Z,15.43
2019-03-22T22:41:02.223Z,13.23
2019-03-22T22:43:34.133Z,14.10
2019-03-22T22:46:06.157Z,16.37
2019-03-22T22:48:38.110Z,15.50
2019-03-22T22:51:10.078Z,14.77
2019-03-22T22:53:42.125Z,14.13
2019-03-22T22:56:14.117Z,14.70
2019-03-22T22:58:46.144Z,18.03
2019-03-22T23:01:18.200Z,18.23
2019-03-22T23:03:59.113Z,15.17
2019-03-22T23:06:33.004Z,16.40
2019-03-22T23:09:05.752Z,17.37
2019-03-22T23:11:39.364Z,14.53
2019-03-22T23:14:11.525Z,15.20
2019-03-22T23:16:43.508Z,13.70
2019-03-22T23:19:15.512Z,14.70
2019-03-22T23:21:47.463Z,13.13
2019-03-22T23:24:19.421Z,13.93
2019-03-22T23:26:51.461Z,15.30
2019-03-22T23:29:23.577Z,14.70
2019-03-22T23:31:55.637Z,16.10
2019-03-22T23:34:27.568Z,17.17
2019-03-22T23:36:59.513Z,18.17
2019-03-22T23:39:31.557Z,16.63
2019-03-22T23:42:03.692Z,17.37
2019-03-22T23:44:35.621Z,17.57
2019-03-22T23:47:07.667Z,18.83
2019-03-22T23:49:39.598Z,16.47
2019-03-22T23:52:11.571Z,17.47
2019-03-22T23:54:43.595Z,17.80
2019-03-22T23:57:15.596Z,16.63
2019-03-22T23:59:47.543Z,20.30
